Time;durP1;ratioP1;P1;durP2;ratioP2;P2;SDS_P1;SDS_P2;PMS_P1;PMS_P2;Temp;Humidity;BMP_temperature;BMP_pressure;BME280_temperature;BME280_humidity;BME280_pressure;Samples;Min_cycle;Max_cycle;Signal;HPM_P1;HPM_P2
2022/09/05 00:00:02;;;;;;;3.83;3.30;;;22.80;53.40;;;;;;5075977;28;20433;-71
2022/09/05 00:02:38;;;;;;;5.50;3.90;;;22.80;53.70;;;;;;5075983;28;20452;-70
2022/09/05 00:05:24;;;;;;;4.37;3.93;;;22.80;54.50;;;;;;5075983;28;20437;-70
2022/09/05 00:08:02;;;;;;;4.23;3.83;;;22.80;54.30;;;;;;5075982;28;20441;-70
2022/09/05 00:10:39;;;;;;;4.73;3.60;;;22.70;54.40;;;;;;5075897;28;20488;-70
2022/09/05 00:13:12;;;;;;;5.30;3.50;;;22.70;54.50;;;;;;5076335;28;20472;-71
2022/09/05 00:15:51;;;;;;;3.63;3.33;;;22.70;54.70;;;;;;5076013;28;20442;-71
2022/09/05 00:18:35;;;;;;;4.07;3.50;;;22.60;54.80;;;;;;5075827;28;20433;-70
2022/09/05 00:21:15;;;;;;;3.80;3.40;;;22.50;54.80;;;;;;5075618;28;20432;-71
2022/09/05 00:23:53;;;;;;;3.97;3.40;;;22.50;54.40;;;;;;5075333;28;20469;-70
2022/09/05 00:26:33;;;;;;;4.90;3.50;;;22.40;54.10;;;;;;5075731;28;20437;-70
2022/09/05 00:29:11;;;;;;;4.20;3.80;;;22.30;54.00;;;;;;5075197;28;20935;-70
2022/09/05 00:31:53;;;;;;;5.60;3.17;;;22.30;54.00;;;;;;5075506;28;20472;-70
2022/09/05 00:34:36;;;;;;;3.53;3.23;;;22.30;54.10;;;;;;5074392;28;20440;-70
2022/09/05 00:37:04;;;;;;;4.43;3.47;;;22.20;54.20;;;;;;5075566;28;20515;-70
2022/09/05 00:39:35;;;;;;;3.60;3.10;;;22.30;54.40;;;;;;5076063;28;20455;-70
2022/09/05 00:42:07;;;;;;;4.37;3.60;;;22.20;54.60;;;;;;5075996;28;20935;-70
2022/09/05 00:44:38;;;;;;;4.90;3.70;;;22.20;54.80;;;;;;5076153;28;20807;-70
2022/09/05 00:47:11;;;;;;;9.13;3.60;;;22.20;55.00;;;;;;5076302;28;20437;-71
2022/09/05 00:49:45;;;;;;;4.30;4.00;;;22.10;55.00;;;;;;5075454;28;20473;-70
2022/09/05 00:52:17;;;;;;;4.40;4.00;;;22.10;54.90;;;;;;5075658;28;20496;-70
2022/09/05 00:54:58;;;;;;;5.53;3.20;;;22.00;54.90;;;;;;5075712;28;20438;-70
2022/09/05 00:57:53;;;;;;;3.80;3.50;;;22.00;54.90;;;;;;5075767;28;20496;-70
2022/09/05 01:00:22;;;;;;;6.03;3.80;;;22.00;55.10;;;;;;5074192;28;20449;-70
2022/09/05 01:03:25;;;;;;;5.20;3.53;;;21.90;55.20;;;;;;5075580;28;20469;-70
2022/09/05 01:06:23;;;;;;;4.10;3.70;;;21.90;55.30;;;;;;5076136;28;20425;-70
2022/09/05 01:09:17;;;;;;;4.23;3.83;;;21.80;55.60;;;;;;5070934;28;20461;-70
2022/09/05 01:11:55;;;;;;;6.87;3.70;;;21.80;56.10;;;;;;5075243;28;21019;-70
2022/09/05 01:14:38;;;;;;;5.93;3.90;;;21.90;57.00;;;;;;5075062;28;20491;-70
2022/09/05 01:17:17;;;;;;;4.03;3.73;;;21.90;57.50;;;;;;5074867;28;20911;-70
2022/09/05 01:19:59;;;;;;;4.97;4.27;;;22.00;58.20;;;;;;5074942;28;20433;-70
2022/09/05 01:23:05;;;;;;;5.43;4.40;;;21.80;58.20;;;;;;5074470;28;20849;-71
2022/09/05 01:25:44;;;;;;;4.57;4.17;;;21.70;57.20;;;;;;5074720;28;20502;-71
2022/09/05 01:28:20;;;;;;;3.97;3.57;;;21.60;56.50;;;;;;5074841;28;20429;-71
2022/09/05 01:30:52;;;;;;;4.90;4.40;;;21.50;56.10;;;;;;5074237;28;20507;-71
2022/09/05 01:33:29;;;;;;;4.37;3.90;;;21.50;56.60;;;;;;5074145;28;20473;-71
2022/09/05 01:36:18;;;;;;;5.73;4.73;;;21.50;56.80;;;;;;5074428;28;20433;-71
2022/09/05 01:38:56;;;;;;;7.00;5.20;;;21.40;57.10;;;;;;5074010;28;20466;-71
2022/09/05 01:41:33;;;;;;;6.40;4.00;;;21.40;57.40;;;;;;5074241;28;20516;-70
2022/09/05 01:44:31;;;;;;;7.43;4.50;;;21.40;57.60;;;;;;5074411;28;20515;-70
2022/09/05 01:47:09;;;;;;;5.43;3.80;;;21.40;57.70;;;;;;5074034;28;20429;-70
2022/09/05 01:49:51;;;;;;;6.27;4.00;;;21.40;58.10;;;;;;5074293;28;20437;-70
2022/09/05 01:52:38;;;;;;;8.00;4.50;;;21.40;58.30;;;;;;5074083;28;20489;-70
2022/09/05 01:55:30;;;;;;;4.17;3.77;;;21.50;58.50;;;;;;5074124;28;20491;-70
2022/09/05 01:58:09;;;;;;;4.70;4.20;;;21.40;58.60;;;;;;5073901;28;20449;-70
2022/09/05 02:00:43;;;;;;;4.87;4.43;;;21.50;59.30;;;;;;5074068;28;20436;-70
2022/09/05 02:03:19;;;;;;;7.47;4.67;;;21.40;59.00;;;;;;5074085;28;20875;-70
2022/09/05 02:06:27;;;;;;;4.87;4.40;;;21.40;59.30;;;;;;5073662;28;20435;-71
2022/09/05 02:09:09;;;;;;;4.33;3.93;;;21.40;59.50;;;;;;5073822;28;20433;-71
2022/09/05 02:11:44;;;;;;;4.90;4.30;;;21.40;59.60;;;;;;5073788;28;20495;-70
2022/09/05 02:14:27;;;;;;;4.97;4.50;;;21.30;59.40;;;;;;5073840;28;20440;-70
2022/09/05 02:17:06;;;;;;;5.83;4.53;;;21.30;59.40;;;;;;5073575;28;20438;-70
2022/09/05 02:19:45;;;;;;;6.27;4.37;;;21.20;59.10;;;;;;5073637;28;20441;-70
2022/09/05 02:22:17;;;;;;;4.70;4.00;;;21.10;58.80;;;;;;5073351;28;21010;-70
2022/09/05 02:24:47;;;;;;;6.53;4.80;;;21.10;58.80;;;;;;5073595;28;20425;-71
2022/09/05 02:27:26;;;;;;;4.60;4.20;;;21.10;59.00;;;;;;5073876;28;20904;-71
2022/09/05 02:30:01;;;;;;;5.97;5.10;;;21.00;59.00;;;;;;5073610;28;20433;-70
2022/09/05 02:32:37;;;;;;;5.17;4.67;;;21.00;59.00;;;;;;5073628;28;20483;-70
2022/09/05 02:35:16;;;;;;;5.70;5.17;;;20.90;59.20;;;;;;5073377;28;20908;-70
2022/09/05 02:37:47;;;;;;;4.63;4.00;;;20.90;59.40;;;;;;5073275;28;20456;-68
2022/09/05 02:40:20;;;;;;;5.87;5.00;;;20.90;59.60;;;;;;5073357;28;20858;-67
2022/09/05 02:43:01;;;;;;;6.53;4.77;;;20.80;59.50;;;;;;5073093;28;20488;-67
2022/09/05 02:45:43;;;;;;;5.57;4.97;;;20.70;60.00;;;;;;5073252;28;20433;-67
2022/09/05 02:48:19;;;;;;;6.83;5.20;;;20.70;59.40;;;;;;5073242;28;20472;-67
2022/09/05 02:50:53;;;;;;;6.90;4.93;;;20.70;59.50;;;;;;5073363;28;20808;-67
2022/09/05 02:53:22;;;;;;;4.87;4.37;;;20.60;59.50;;;;;;5073043;28;20472;-67
2022/09/05 02:56:06;;;;;;;4.77;4.37;;;20.60;59.30;;;;;;5073017;28;20967;-67
2022/09/05 02:58:48;;;;;;;7.00;4.40;;;20.60;59.20;;;;;;5075045;28;20444;-67
2022/09/05 03:01:32;;;;;;;4.63;4.10;;;20.50;59.00;;;;;;5076737;28;20481;-67
2022/09/05 03:04:09;;;;;;;5.43;4.73;;;20.50;59.40;;;;;;5077094;28;20530;-67
2022/09/05 03:06:44;;;;;;;5.17;4.67;;;20.50;59.70;;;;;;5076717;28;20946;-66
2022/09/05 03:09:24;;;;;;;5.27;4.63;;;20.40;59.90;;;;;;5076927;28;20432;-66
2022/09/05 03:12:23;;;;;;;5.77;4.47;;;20.50;60.10;;;;;;5076664;28;20433;-66
2022/09/05 03:15:17;;;;;;;6.50;4.20;;;20.40;60.10;;;;;;5076746;28;20437;-66
2022/09/05 03:18:12;;;;;;;4.73;4.23;;;20.40;60.20;;;;;;5048839;28;20461;-66
2022/09/05 03:21:25;;;;;;;5.63;5.13;;;20.40;60.80;;;;;;5078326;28;20433;-66
2022/09/05 03:24:26;;;;;;;5.27;4.77;;;20.30;61.00;;;;;;5076546;28;20467;-67
2022/09/05 03:27:23;;;;;;;4.40;4.10;;;20.20;60.70;;;;;;5076557;28;20428;-67
2022/09/05 03:30:11;;;;;;;4.63;4.23;;;20.20;60.50;;;;;;5071316;28;20881;-67
2022/09/05 03:33:03;;;;;;;6.90;4.27;;;20.10;60.00;;;;;;5076261;28;20845;-67
2022/09/05 03:36:12;;;;;;;5.37;4.53;;;20.00;59.40;;;;;;5076350;28;20510;-67
2022/09/05 03:39:17;;;;;;;4.60;4.20;;;20.00;59.20;;;;;;5076013;28;20464;-67
2022/09/05 03:42:07;;;;;;;4.93;4.53;;;19.90;59.20;;;;;;5042792;28;20484;-66
2022/09/05 03:44:48;;;;;;;6.90;4.40;;;19.80;59.30;;;;;;5076670;28;20433;-66
2022/09/05 03:47:33;;;;;;;5.70;4.30;;;19.80;59.50;;;;;;5076462;28;20441;-66
2022/09/05 03:50:16;;;;;;;5.40;4.57;;;19.80;59.70;;;;;;5076204;28;20448;-66
2022/09/05 03:53:04;;;;;;;5.63;5.13;;;19.80;59.90;;;;;;5076135;28;20487;-67
2022/09/05 03:55:53;;;;;;;4.80;4.20;;;19.80;60.40;;;;;;5076067;28;20440;-67
2022/09/05 03:58:36;;;;;;;5.10;4.70;;;19.80;60.70;;;;;;5075963;28;20806;-66
2022/09/05 04:01:09;;;;;;;5.03;4.50;;;19.80;60.90;;;;;;5076035;28;20433;-66
2022/09/05 04:03:43;;;;;;;5.43;4.93;;;19.70;61.20;;;;;;5076053;28;20472;-66
2022/09/05 04:06:18;;;;;;;5.93;4.57;;;19.70;61.60;;;;;;5075547;28;20425;-67
2022/09/05 04:08:49;;;;;;;9.50;4.90;;;19.70;61.70;;;;;;5075698;28;20459;-67
2022/09/05 04:11:23;;;;;;;5.07;4.43;;;19.70;61.70;;;;;;5075739;28;20426;-67
2022/09/05 04:13:52;;;;;;;5.90;5.27;;;19.70;61.80;;;;;;5075773;28;20481;-66
2022/09/05 04:16:24;;;;;;;5.23;4.73;;;19.70;62.00;;;;;;5075399;28;20909;-66
2022/09/05 04:18:54;;;;;;;7.50;5.17;;;19.70;62.20;;;;;;5075266;28;20446;-66
2022/09/05 04:21:26;;;;;;;6.20;4.70;;;19.60;61.90;;;;;;5075628;28;20479;-66
2022/09/05 04:24:02;;;;;;;6.37;4.43;;;19.60;61.80;;;;;;5075420;28;20468;-67
2022/09/05 04:26:49;;;;;;;6.70;4.67;;;19.50;61.70;;;;;;5075457;28;20433;-67
2022/09/05 04:29:24;;;;;;;8.90;4.17;;;19.50;61.80;;;;;;5075514;28;20446;-67
2022/09/05 04:32:00;;;;;;;4.67;4.13;;;19.50;61.60;;;;;;5075359;28;20425;-67
2022/09/05 04:34:41;;;;;;;7.20;4.83;;;19.40;60.70;;;;;;5075659;28;20477;-67
2022/09/05 04:37:10;;;;;;;5.63;5.00;;;19.30;60.40;;;;;;5075255;28;20461;-67
2022/09/05 04:39:37;;;;;;;5.37;4.87;;;19.30;60.20;;;;;;5075051;28;20453;-67
2022/09/05 04:42:20;;;;;;;5.50;4.30;;;19.30;60.10;;;;;;5074486;28;20861;-67
2022/09/05 04:44:51;;;;;;;7.63;4.17;;;19.20;60.40;;;;;;5074777;28;20912;-66
2022/09/05 04:47:23;;;;;;;5.70;4.37;;;19.20;60.90;;;;;;5075080;28;20437;-67
2022/09/05 04:49:54;;;;;;;5.03;4.37;;;19.20;61.10;;;;;;5075137;28;20433;-67
2022/09/05 04:52:49;;;;;;;6.50;5.00;;;19.10;61.20;;;;;;5074961;28;20465;-67
2022/09/05 04:55:20;;;;;;;5.47;4.50;;;19.20;61.80;;;;;;5074788;28;20453;-67
2022/09/05 04:57:54;;;;;;;5.03;4.20;;;19.20;62.10;;;;;;5074519;28;20456;-67
2022/09/05 05:00:36;;;;;;;6.00;4.60;;;19.10;62.10;;;;;;5074752;28;20781;-66
2022/09/05 05:03:11;;;;;;;5.80;5.23;;;19.10;62.40;;;;;;5074548;28;20503;-66
2022/09/05 05:05:57;;;;;;;6.43;5.30;;;19.20;62.90;;;;;;5074720;28;20460;-66
2022/09/05 05:08:30;;;;;;;7.63;5.70;;;19.10;63.10;;;;;;5075070;28;20904;-69
2022/09/05 05:11:01;;;;;;;6.60;5.50;;;19.10;63.50;;;;;;5074831;28;20916;-71
2022/09/05 05:13:35;;;;;;;8.20;5.20;;;19.10;64.00;;;;;;5074618;28;20805;-71
2022/09/05 05:16:06;;;;;;;6.03;4.90;;;19.00;63.70;;;;;;5074694;28;20409;-71
2022/09/05 05:18:39;;;;;;;5.57;4.73;;;18.90;62.80;;;;;;5074625;28;20780;-70
2022/09/05 05:21:11;;;;;;;7.00;5.10;;;18.90;62.00;;;;;;5073816;28;20440;-71
2022/09/05 05:23:41;;;;;;;6.77;6.10;;;18.70;61.30;;;;;;5074692;28;20521;-69
2022/09/05 05:26:11;;;;;;;5.63;5.10;;;18.70;61.20;;;;;;5075158;28;20441;-70
2022/09/05 05:28:49;;;;;;;6.60;5.37;;;18.60;61.50;;;;;;5075024;28;20434;-70
2022/09/05 05:31:19;;;;;;;6.70;5.87;;;18.70;62.10;;;;;;5074625;28;20429;-69
2022/09/05 05:33:48;;;;;;;8.43;6.00;;;18.70;62.30;;;;;;5074685;28;20461;-71
2022/09/05 05:36:20;;;;;;;9.53;6.93;;;18.70;62.60;;;;;;5074643;28;20817;-71
2022/09/05 05:38:53;;;;;;;10.10;8.57;;;18.80;63.20;;;;;;5074227;28;20522;-71
2022/09/05 05:41:24;;;;;;;8.83;8.03;;;18.80;63.90;;;;;;5074400;28;20433;-70
2022/09/05 05:43:52;;;;;;;14.50;9.50;;;18.90;65.00;;;;;;5074006;28;20994;-70
2022/09/05 05:46:32;;;;;;;11.73;10.53;;;19.00;65.70;;;;;;5074378;28;20477;-71
2022/09/05 05:49:23;;;;;;;12.80;10.90;;;19.00;66.80;;;;;;5074182;28;20439;-71
2022/09/05 05:52:12;;;;;;;12.00;10.63;;;19.10;68.30;;;;;;5074088;28;20448;-71
2022/09/05 05:54:46;;;;;;;15.07;10.77;;;19.20;69.50;;;;;;5074333;28;20441;-70
2022/09/05 05:57:31;;;;;;;11.20;8.87;;;19.30;70.00;;;;;;5074132;28;20437;-70
2022/09/05 06:00:06;;;;;;;10.70;9.57;;;19.40;70.50;;;;;;5074409;28;20429;-70
2022/09/05 06:03:07;;;;;;;10.33;9.23;;;19.50;71.10;;;;;;5073750;28;20583;-71
2022/09/05 06:05:57;;;;;;;9.93;8.70;;;19.60;71.50;;;;;;5073978;28;20437;-71
2022/09/05 06:08:44;;;;;;;10.53;8.90;;;19.70;71.60;;;;;;5073882;28;20473;-71
2022/09/05 06:11:50;;;;;;;8.87;7.97;;;19.70;71.60;;;;;;5073769;28;20429;-70
2022/09/05 06:15:02;;;;;;;9.93;7.57;;;19.90;70.80;;;;;;5072098;28;20459;-70
2022/09/05 06:18:04;;;;;;;10.07;7.47;;;20.00;71.40;;;;;;5073711;28;20460;-70
2022/09/05 06:21:04;;;;;;;8.87;6.87;;;20.00;72.50;;;;;;5073801;28;20424;-70
2022/09/05 06:24:19;;;;;;;9.50;6.90;;;20.10;72.10;;;;;;5073407;28;20499;-70
2022/09/05 06:26:59;;;;;;;8.63;7.00;;;20.30;72.30;;;;;;5073287;28;20452;-71
2022/09/05 06:29:37;;;;;;;10.00;7.50;;;20.30;72.80;;;;;;5073780;28;20452;-71
2022/09/05 06:32:15;;;;;;;6.27;5.30;;;20.40;72.10;;;;;;5073546;28;20433;-70
2022/09/05 06:35:11;;;;;;;10.57;5.90;;;20.50;71.10;;;;;;5077516;28;20452;-70
2022/09/05 06:37:46;;;;;;;13.50;6.10;;;20.60;70.80;;;;;;5077261;28;20452;-71
2022/09/05 06:40:22;;;;;;;10.30;6.10;;;20.70;70.60;;;;;;5078003;28;20440;-71
2022/09/05 06:43:17;;;;;;;6.63;5.37;;;20.80;70.60;;;;;;5077305;28;20515;-70
2022/09/05 06:46:06;;;;;;;5.10;4.37;;;20.90;70.00;;;;;;5077266;28;20460;-70
2022/09/05 06:48:43;;;;;;;5.07;4.57;;;21.00;67.90;;;;;;5077298;28;20441;-71
2022/09/05 06:51:42;;;;;;;6.70;5.80;;;21.10;67.00;;;;;;5077454;28;20845;-70
2022/09/05 06:54:34;;;;;;;7.00;4.43;;;21.20;67.30;;;;;;5072265;28;20477;-70
2022/09/05 06:57:21;;;;;;;7.23;5.37;;;21.40;67.60;;;;;;5077556;28;20433;-70
2022/09/05 07:00:19;;;;;;;10.73;4.77;;;21.50;67.30;;;;;;5077464;28;20429;-71
2022/09/05 07:03:10;;;;;;;6.70;4.20;;;21.60;66.40;;;;;;5077209;28;20488;-71
2022/09/05 07:05:41;;;;;;;3.93;3.47;;;21.80;65.90;;;;;;5076865;28;20951;-70
2022/09/05 07:08:22;;;;;;;9.33;4.20;;;21.90;64.70;;;;;;5077263;28;20524;-70
2022/09/05 07:10:57;;;;;;;5.77;3.70;;;22.00;65.00;;;;;;5076968;28;20930;-70
2022/09/05 07:13:31;;;;;;;5.27;3.93;;;22.10;64.70;;;;;;5076964;28;20584;-70
2022/09/05 07:16:05;;;;;;;3.80;3.37;;;22.30;63.60;;;;;;5077094;28;20432;-70
2022/09/05 07:18:42;;;;;;;7.70;3.50;;;22.40;63.10;;;;;;5077001;28;20459;-70
2022/09/05 07:21:17;;;;;;;4.87;3.43;;;22.60;62.70;;;;;;5076553;28;20934;-70
2022/09/05 07:23:51;;;;;;;7.23;3.70;;;22.70;61.80;;;;;;5076622;28;20502;-71
2022/09/05 07:26:19;;;;;;;5.00;3.20;;;22.90;60.90;;;;;;5079053;28;20436;-71
2022/09/05 07:28:52;;;;;;;3.40;3.00;;;23.00;60.30;;;;;;5076876;28;20430;-71
2022/09/05 07:31:23;;;;;;;6.27;3.40;;;23.20;59.70;;;;;;5076652;28;20512;-70
2022/09/05 07:34:05;;;;;;;3.53;3.33;;;23.30;59.10;;;;;;5076556;28;20475;-71
2022/09/05 07:36:37;;;;;;;5.47;4.00;;;23.50;58.40;;;;;;5076236;28;20934;-71
2022/09/05 07:39:08;;;;;;;3.37;2.70;;;23.60;57.90;;;;;;5077065;28;20436;-71
2022/09/05 07:41:38;;;;;;;6.00;3.73;;;23.80;57.30;;;;;;5077235;28;20499;-71
2022/09/05 07:44:08;;;;;;;6.57;3.40;;;24.00;57.10;;;;;;5077421;28;20493;-71
2022/09/05 07:46:38;;;;;;;4.63;3.40;;;24.10;57.40;;;;;;5076369;28;20437;-71
2022/09/05 07:49:07;;;;;;;9.70;3.03;;;24.30;56.20;;;;;;5076571;28;20445;-71
2022/09/05 07:51:36;;;;;;;5.20;3.30;;;24.40;55.80;;;;;;5075884;28;20449;-71
2022/09/05 07:54:10;;;;;;;2.63;2.43;;;24.50;55.60;;;;;;5076164;28;20505;-70
2022/09/05 07:56:44;;;;;;;3.20;2.53;;;24.70;55.10;;;;;;5076183;28;20436;-71
2022/09/05 07:59:14;;;;;;;4.57;2.60;;;24.90;54.90;;;;;;5075618;28;20845;-71
2022/09/05 08:01:44;;;;;;;4.60;2.90;;;25.10;54.60;;;;;;5075958;28;20464;-71
2022/09/05 08:04:21;;;;;;;3.70;2.63;;;25.40;54.40;;;;;;5075853;28;20511;-71
2022/09/05 08:06:51;;;;;;;2.83;2.60;;;25.60;53.60;;;;;;5075621;28;20425;-71
2022/09/05 08:09:25;;;;;;;4.20;2.67;;;25.80;53.10;;;;;;5075821;28;20488;-70
2022/09/05 08:11:55;;;;;;;2.77;2.57;;;26.10;52.30;;;;;;5075739;28;20444;-72
2022/09/05 08:14:42;;;;;;;3.73;3.10;;;26.30;51.80;;;;;;5075882;28;20445;-72
2022/09/05 08:17:13;;;;;;;4.37;2.90;;;26.50;50.60;;;;;;5075499;28;20524;-71
2022/09/05 08:19:54;;;;;;;2.50;2.30;;;26.70;50.40;;;;;;5075689;28;20434;-72
2022/09/05 08:22:24;;;;;;;8.67;2.80;;;27.00;50.10;;;;;;5075887;28;20866;-71
2022/09/05 08:25:03;;;;;;;5.00;2.50;;;27.20;48.90;;;;;;5075265;28;20912;-71
2022/09/05 08:27:37;;;;;;;2.53;2.33;;;27.40;48.20;;;;;;5075232;28;20436;-71
2022/09/05 08:30:09;;;;;;;6.63;2.77;;;27.70;48.80;;;;;;5075226;28;20930;-71
2022/09/05 08:32:43;;;;;;;5.23;2.73;;;27.90;47.60;;;;;;5075468;28;20479;-71
2022/09/05 08:35:15;;;;;;;4.93;3.13;;;28.10;47.30;;;;;;5075340;28;20928;-71
2022/09/05 08:37:44;;;;;;;2.80;2.27;;;28.40;46.70;;;;;;5075021;28;20471;-71
2022/09/05 08:40:21;;;;;;;4.00;2.63;;;28.60;45.50;;;;;;5075416;28;20507;-71
2022/09/05 08:42:55;;;;;;;3.10;2.20;;;28.90;43.50;;;;;;5075242;28;20492;-71
2022/09/05 08:45:26;;;;;;;3.90;2.70;;;29.00;43.50;;;;;;5075366;28;20433;-71
2022/09/05 08:47:58;;;;;;;3.30;2.20;;;29.20;43.70;;;;;;5074890;28;20437;-72
2022/09/05 08:50:53;;;;;;;2.73;2.17;;;29.50;43.70;;;;;;5075166;28;20429;-71
2022/09/05 08:53:28;;;;;;;4.80;2.20;;;29.70;43.50;;;;;;5075020;28;20461;-71
2022/09/05 08:56:01;;;;;;;2.73;2.20;;;30.00;42.70;;;;;;5074227;28;20429;-70
2022/09/05 08:58:49;;;;;;;6.13;2.50;;;30.20;41.90;;;;;;5074885;28;20433;-71
2022/09/05 09:01:26;;;;;;;4.33;2.47;;;30.50;41.50;;;;;;5074919;28;20421;-70
2022/09/05 09:04:15;;;;;;;3.23;2.63;;;30.70;41.10;;;;;;5074702;28;20484;-69
2022/09/05 09:07:07;;;;;;;2.20;2.00;;;30.90;40.50;;;;;;5074745;28;20449;-70
2022/09/05 09:09:42;;;;;;;4.10;2.33;;;31.10;38.50;;;;;;5071083;28;20947;-70
2022/09/05 09:12:45;;;;;;;4.80;2.80;;;31.20;38.40;;;;;;5074782;28;20456;-70
2022/09/05 09:15:19;;;;;;;2.67;2.17;;;31.50;37.60;;;;;;5074562;28;20436;-70
2022/09/05 09:17:49;;;;;;;5.17;2.23;;;31.60;36.60;;;;;;5074562;28;20436;-70
2022/09/05 09:20:32;;;;;;;6.60;2.40;;;31.90;37.00;;;;;;5074388;28;20502;-70
2022/09/05 09:23:04;;;;;;;6.90;3.03;;;32.10;36.40;;;;;;5074389;28;20557;-70
2022/09/05 09:25:38;;;;;;;6.00;2.60;;;32.30;35.20;;;;;;5074457;28;20612;-70
2022/09/05 09:28:39;;;;;;;5.43;2.37;;;32.40;35.30;;;;;;5074480;28;20784;-71
2022/09/05 09:31:14;;;;;;;5.30;2.53;;;32.60;34.80;;;;;;5074232;28;20445;-70
2022/09/05 09:33:46;;;;;;;4.40;2.40;;;32.80;34.20;;;;;;5074120;28;20846;-69
2022/09/05 09:36:39;;;;;;;2.90;2.37;;;33.00;32.90;;;;;;5074459;28;20437;-70
2022/09/05 09:39:26;;;;;;;6.03;2.63;;;33.20;32.70;;;;;;5047208;28;20826;-70
2022/09/05 09:42:13;;;;;;;4.20;2.53;;;33.50;33.30;;;;;;5074012;28;20448;-69
2022/09/05 09:45:05;;;;;;;3.93;3.00;;;33.80;33.50;;;;;;5074079;28;20548;-70
2022/09/05 09:47:54;;;;;;;3.77;2.67;;;34.20;32.70;;;;;;5074068;28;20447;-70
2022/09/05 09:50:32;;;;;;;3.80;2.80;;;34.40;32.00;;;;;;5074043;28;20800;-70
2022/09/05 09:53:18;;;;;;;5.23;2.60;;;34.60;30.70;;;;;;5073607;28;21002;-70
2022/09/05 09:56:14;;;;;;;4.10;2.80;;;34.90;30.50;;;;;;5074103;28;20429;-70
2022/09/05 09:59:06;;;;;;;5.40;3.20;;;35.10;30.50;;;;;;5073816;28;20450;-69
2022/09/05 10:01:42;;;;;;;4.63;2.90;;;35.30;29.70;;;;;;5074119;28;20448;-69
2022/09/05 10:04:21;;;;;;;3.40;2.90;;;35.60;28.90;;;;;;5073923;28;20516;-69
2022/09/05 10:07:10;;;;;;;2.70;2.50;;;35.80;28.80;;;;;;5073748;28;20436;-69
2022/09/05 10:09:53;;;;;;;3.30;2.60;;;36.10;27.90;;;;;;5073540;28;20448;-71
2022/09/05 10:13:02;;;;;;;2.90;2.60;;;36.40;28.40;;;;;;5073668;28;20472;-70
2022/09/05 10:15:36;;;;;;;6.27;2.40;;;36.90;27.80;;;;;;5044422;28;20205;-70
2022/09/05 10:18:35;;;;;;;5.18;2.40;;;37.30;26.10;;;;;;5073364;28;20637;-70
2022/09/05 10:21:11;;;;;;;2.57;2.37;;;37.80;26.30;;;;;;5073659;28;20198;-71
2022/09/05 10:24:25;;;;;;;5.13;2.65;;;38.30;25.80;;;;;;5073644;28;20260;-70
2022/09/05 10:27:18;;;;;;;3.72;2.13;;;38.70;23.60;;;;;;5073786;28;20198;-70
2022/09/05 10:30:09;;;;;;;3.97;2.08;;;38.90;22.10;;;;;;5073677;28;20610;-70
2022/09/05 10:32:42;;;;;;;4.78;2.10;;;39.30;22.50;;;;;;5073622;28;20244;-70
2022/09/05 10:35:18;;;;;;;2.08;1.80;;;39.70;21.40;;;;;;5073528;28;20185;-71
2022/09/05 10:37:48;;;;;;;2.55;1.65;;;40.20;20.90;;;;;;5073337;28;20217;-71
2022/09/05 10:40:20;;;;;;;2.33;1.60;;;40.60;19.90;;;;;;5074417;28;20178;-70
2022/09/05 10:42:50;;;;;;;1.38;1.27;;;40.90;18.50;;;;;;5073321;28;20233;-71
2022/09/05 10:45:27;;;;;;;1.67;1.50;;;41.10;18.40;;;;;;5073328;28;20202;-70
2022/09/05 10:48:06;;;;;;;2.55;1.70;;;41.10;18.70;;;;;;5073747;28;20182;-70
2022/09/05 10:50:41;;;;;;;1.30;1.20;;;41.10;18.00;;;;;;5073569;28;20339;-70
2022/09/05 10:53:21;;;;;;;1.65;1.55;;;41.10;18.40;;;;;;5073311;28;20218;-71
2022/09/05 10:56:00;;;;;;;1.95;1.70;;;41.40;18.10;;;;;;5073486;28;20190;-71
2022/09/05 10:58:48;;;;;;;2.47;1.60;;;41.80;18.60;;;;;;5064799;28;20194;-70
2022/09/05 11:01:28;;;;;;;1.48;1.38;;;42.20;18.30;;;;;;5072327;28;20202;-70
2022/09/05 11:04:08;;;;;;;2.17;1.67;;;42.80;17.10;;;;;;5063945;28;20689;-70
2022/09/05 11:06:51;;;;;;;2.30;1.70;;;43.30;16.30;;;;;;5053205;28;20198;-70
2022/09/05 11:09:37;;;;;;;1.70;1.30;;;43.70;16.50;;;;;;5052854;28;20206;-70
2022/09/05 11:12:14;;;;;;;4.35;1.38;;;43.70;15.70;;;;;;5053189;28;20634;-70
2022/09/05 11:14:50;;;;;;;3.33;1.70;;;43.80;15.90;;;;;;5053399;28;20183;-72
2022/09/05 11:17:28;;;;;;;4.10;1.58;;;43.90;15.50;;;;;;5052894;28;20183;-71
2022/09/05 11:20:06;;;;;;;2.08;1.50;;;44.10;15.80;;;;;;5055132;28;20190;-71
2022/09/05 11:22:38;;;;;;;1.75;1.40;;;44.10;16.10;;;;;;5056360;28;20721;-71
2022/09/05 11:25:13;;;;;;;2.72;1.65;;;44.00;15.90;;;;;;5057357;28;20238;-71
2022/09/05 11:27:43;;;;;;;1.50;1.40;;;43.90;16.40;;;;;;5056357;28;20676;-71
2022/09/05 11:30:14;;;;;;;2.88;1.52;;;44.00;16.90;;;;;;5056740;28;20199;-71
2022/09/05 11:33:21;;;;;;;1.73;1.35;;;44.60;16.20;;;;;;5056718;28;20222;-71
2022/09/05 11:35:53;;;;;;;2.75;1.30;;;45.20;13.90;;;;;;5057357;28;20183;-71
2022/09/05 11:38:45;;;;;;;4.90;0.98;;;45.50;14.00;;;;;;5056631;28;20242;-72
2022/09/05 11:41:52;;;;;;;2.15;1.33;;;45.70;13.40;;;;;;5057009;28;20187;-71
2022/09/05 11:44:36;;;;;;;1.50;1.40;;;46.20;13.00;;;;;;5057072;28;20207;-71
2022/09/05 11:47:27;;;;;;;3.35;1.60;;;46.60;13.30;;;;;;5057721;28;20543;-71
2022/09/05 11:50:24;;;;;;;3.25;1.38;;;47.10;12.70;;;;;;5056801;28;20197;-72
2022/09/05 11:53:18;;;;;;;3.60;1.35;;;47.60;12.00;;;;;;5056741;28;20218;-71
2022/09/05 11:56:30;;;;;;;2.45;1.23;;;47.90;11.10;;;;;;5057914;28;20191;-72
2022/09/05 11:59:38;;;;;;;1.30;1.20;;;48.30;11.50;;;;;;5056616;28;20203;-71
2022/09/05 12:02:25;;;;;;;4.05;1.38;;;48.50;12.00;;;;;;5056476;28;20191;-72
2022/09/05 12:05:06;;;;;;;1.92;1.27;;;48.90;10.80;;;;;;5056249;28;20194;-72
2022/09/05 12:07:43;;;;;;;2.05;1.23;;;49.00;10.90;;;;;;5056473;28;20205;-72
2022/09/05 12:10:28;;;;;;;2.63;1.23;;;49.30;10.70;;;;;;5056350;28;20195;-72
2022/09/05 12:13:15;;;;;;;5.70;1.20;;;49.70;11.00;;;;;;5057333;28;20226;-72
2022/09/05 12:15:45;;;;;;;1.20;1.08;;;50.10;11.20;;;;;;5053749;28;20655;-68
2022/09/05 12:18:26;;;;;;;2.05;1.20;;;50.50;10.00;;;;;;5055680;28;20191;-68
2022/09/05 12:21:00;;;;;;;1.20;1.00;;;50.70;10.10;;;;;;5055824;28;20218;-68
2022/09/05 12:23:36;;;;;;;3.15;1.17;;;50.90;9.30;;;;;;5055450;28;20218;-68
2022/09/05 12:26:10;;;;;;;2.17;1.20;;;51.00;9.50;;;;;;5055337;28;20240;-68
2022/09/05 12:28:43;;;;;;;1.40;1.20;;;51.20;8.80;;;;;;5055414;28;20204;-68
2022/09/05 12:31:18;;;;;;;3.08;1.00;;;50.90;9.10;;;;;;5054256;28;20187;-68
2022/09/05 12:33:50;;;;;;;2.35;1.10;;;50.50;8.90;;;;;;5055362;28;20641;-68
2022/09/05 12:36:27;;;;;;;2.88;1.23;;;50.20;9.50;;;;;;5055336;28;20182;-68
2022/09/05 12:39:01;;;;;;;4.72;1.35;;;50.10;9.30;;;;;;5054854;28;20220;-68
2022/09/05 12:41:41;;;;;;;3.42;0.93;;;50.00;9.30;;;;;;5055147;28;20187;-68
2022/09/05 12:44:24;;;;;;;2.05;1.00;;;50.00;9.50;;;;;;5055201;28;20219;-68
2022/09/05 12:47:00;;;;;;;1.88;1.20;;;49.80;9.80;;;;;;5055639;28;20187;-68
2022/09/05 12:49:34;;;;;;;2.10;1.10;;;50.00;9.90;;;;;;5055928;28;20190;-68
2022/09/05 12:52:05;;;;;;;2.45;0.90;;;50.30;9.90;;;;;;5055248;28;20269;-68
2022/09/05 12:54:41;;;;;;;3.83;1.33;;;50.80;10.20;;;;;;5055012;28;20579;-68
2022/09/05 12:57:16;;;;;;;1.80;1.00;;;51.20;8.40;;;;;;5054944;28;20636;-68
2022/09/05 12:59:46;;;;;;;2.50;1.02;;;51.60;9.50;;;;;;5054819;28;20186;-68
2022/09/05 13:02:25;;;;;;;2.47;1.10;;;52.20;8.80;;;;;;5054878;28;20226;-68
2022/09/05 13:04:57;;;;;;;2.70;1.00;;;52.80;7.70;;;;;;5054594;28;20186;-68
2022/09/05 13:07:33;;;;;;;2.42;1.20;;;52.70;7.00;;;;;;5054748;28;20195;-68
2022/09/05 13:10:08;;;;;;;6.68;1.15;;;52.00;7.30;;;;;;5054718;28;20187;-68
2022/09/05 13:12:39;;;;;;;1.42;1.13;;;51.20;7.80;;;;;;5054583;28;20595;-68
2022/09/05 13:15:10;;;;;;;5.90;1.20;;;50.50;8.60;;;;;;5054762;28;20207;-68
2022/09/05 13:17:42;;;;;;;3.05;1.08;;;50.20;9.70;;;;;;5054127;28;20623;-68
2022/09/05 13:20:20;;;;;;;1.75;1.17;;;50.20;9.80;;;;;;5054581;28;20187;-68
2022/09/05 13:22:49;;;;;;;2.53;1.10;;;50.50;9.40;;;;;;5054354;28;20226;-68
2022/09/05 13:25:23;;;;;;;6.18;1.10;;;50.40;9.20;;;;;;5054463;28;20205;-68
2022/09/05 13:27:56;;;;;;;2.00;0.98;;;50.50;8.60;;;;;;5054216;28;20670;-68
2022/09/05 13:30:25;;;;;;;1.73;1.00;;;50.50;8.40;;;;;;5054308;28;20195;-68
2022/09/05 13:32:55;;;;;;;3.95;1.10;;;50.40;8.50;;;;;;5054262;28;20223;-68
2022/09/05 13:35:26;;;;;;;3.85;0.82;;;49.80;9.00;;;;;;5054209;28;20207;-68
2022/09/05 13:38:01;;;;;;;1.38;1.27;;;49.20;9.50;;;;;;5054079;28;20210;-68
2022/09/05 13:40:34;;;;;;;2.03;1.65;;;48.60;9.70;;;;;;5053925;28;20646;-69
2022/09/05 13:43:08;;;;;;;2.95;1.40;;;47.60;10.10;;;;;;5053910;28;20227;-67
2022/09/05 13:45:47;;;;;;;1.45;1.10;;;46.60;10.70;;;;;;5054120;28;20179;-68
2022/09/05 13:48:36;;;;;;;1.25;1.10;;;45.80;12.00;;;;;;5054220;28;20214;-68
2022/09/05 13:51:16;;;;;;;1.52;1.08;;;45.00;14.00;;;;;;5054220;28;20187;-68
2022/09/05 13:53:50;;;;;;;2.03;1.25;;;44.20;14.40;;;;;;5054052;28;20233;-67